AQC weather

Klawock Seaplane Base
Klawock, Alaska, United States

Public forecast

Using degrees Fahrenheit for public forecast. Weather courtesy of forecast.io.

METAR (pilot weather report)

Closest report is Klawock Airport, 1.7 nm (3.2 km) NNE. Retrieved 2019/07/17 11:53 UTC (15 minutes ago):

PAKW 171153Z AUTO 00000KT 2 1/2SM RA BR OVC031 13/13 A2943 RMK SLP964 P0007 60018 70026 T01330133 10139 20133 56022 TSNO VIA AUTODIAL

TAF (pilot weather forecast)

Closest forecast is Klawock Airport, 1.7 nm (3.2 km) NNE. Retrieved 2019/07/17 12:36 UTC (0 seconds ago):

TAF PAKW 171134Z 1712/1812 05006KT 4SM -RA BR OVC015 TEMPO 1712/1716 2SM RA BR BKN007 OVC015 FM172200 22011KT 4SM -RA BR OVC015 FM180200 VRB06KT 6SM -RA BR SCT015 OVC022 AMD LTD TO CLD VIS AND WIND